sensor_id;sensor_type;location;lat;lon;timestamp;pressure;altitude;pressure_sealevel;temperature;humidity
53011;BME280;42803;55.762;38.084;2023-07-31T00:00:11;98752.28;;;13.98;100.00
53011;BME280;42803;55.762;38.084;2023-07-31T00:02:41;98749.47;;;13.95;100.00
53011;BME280;42803;55.762;38.084;2023-07-31T00:05:11;98750.97;;;13.89;100.00
53011;BME280;42803;55.762;38.084;2023-07-31T00:07:40;98749.41;;;13.93;100.00
53011;BME280;42803;55.762;38.084;2023-07-31T00:10:10;98759.81;;;13.92;100.00
53011;BME280;42803;55.762;38.084;2023-07-31T00:12:40;98749.31;;;13.92;100.00
53011;BME280;42803;55.762;38.084;2023-07-31T00:15:10;98748.34;;;13.89;100.00
53011;BME280;42803;55.762;38.084;2023-07-31T00:17:40;98754.28;;;13.85;100.00
53011;BME280;42803;55.762;38.084;2023-07-31T00:20:11;98745.91;;;13.76;100.00
53011;BME280;42803;55.762;38.084;2023-07-31T00:22:40;98750.97;;;13.73;100.00
53011;BME280;42803;55.762;38.084;2023-07-31T00:25:09;98743.88;;;13.71;100.00
53011;BME280;42803;55.762;38.084;2023-07-31T00:27:38;98742.22;;;13.73;100.00
53011;BME280;42803;55.762;38.084;2023-07-31T00:30:12;98749.53;;;13.78;100.00
53011;BME280;42803;55.762;38.084;2023-07-31T00:32:41;98738.25;;;13.81;100.00
53011;BME280;42803;55.762;38.084;2023-07-31T00:35:11;98736.63;;;13.83;100.00
53011;BME280;42803;55.762;38.084;2023-07-31T00:37:40;98739.03;;;13.78;100.00
53011;BME280;42803;55.762;38.084;2023-07-31T00:40:12;98743.28;;;13.76;100.00
53011;BME280;42803;55.762;38.084;2023-07-31T00:42:42;98739.75;;;13.76;100.00
53011;BME280;42803;55.762;38.084;2023-07-31T00:45:11;98743.50;;;13.81;100.00
53011;BME280;42803;55.762;38.084;2023-07-31T00:47:41;98734.00;;;13.83;100.00
53011;BME280;42803;55.762;38.084;2023-07-31T00:50:12;98752.22;;;13.80;100.00
53011;BME280;42803;55.762;38.084;2023-07-31T00:52:42;98750.97;;;13.73;100.00
53011;BME280;42803;55.762;38.084;2023-07-31T00:55:11;98752.53;;;13.70;100.00
53011;BME280;42803;55.762;38.084;2023-07-31T00:57:41;98759.19;;;13.63;100.00
53011;BME280;42803;55.762;38.084;2023-07-31T01:00:12;98752.66;;;13.55;100.00
53011;BME280;42803;55.762;38.084;2023-07-31T01:02:41;98747.00;;;13.47;100.00
53011;BME280;42803;55.762;38.084;2023-07-31T01:05:12;98741.41;;;13.41;100.00
53011;BME280;42803;55.762;38.084;2023-07-31T01:07:45;98750.34;;;13.28;100.00
53011;BME280;42803;55.762;38.084;2023-07-31T01:10:19;98747.00;;;13.16;100.00
53011;BME280;42803;55.762;38.084;2023-07-31T01:12:50;98751.59;;;13.20;100.00
53011;BME280;42803;55.762;38.084;2023-07-31T01:15:21;98749.91;;;13.21;100.00
53011;BME280;42803;55.762;38.084;2023-07-31T01:17:50;98756.34;;;13.11;100.00
53011;BME280;42803;55.762;38.084;2023-07-31T01:20:22;98754.13;;;13.02;100.00
53011;BME280;42803;55.762;38.084;2023-07-31T01:23:13;98756.94;;;13.05;100.00
53011;BME280;42803;55.762;38.084;2023-07-31T01:26:04;98759.78;;;13.10;100.00
53011;BME280;42803;55.762;38.084;2023-07-31T01:28:42;98758.31;;;13.15;100.00
53011;BME280;42803;55.762;38.084;2023-07-31T01:31:17;98747.84;;;13.15;100.00
53011;BME280;42803;55.762;38.084;2023-07-31T01:33:48;98748.06;;;13.20;100.00
53011;BME280;42803;55.762;38.084;2023-07-31T01:36:18;98756.38;;;13.27;100.00
53011;BME280;42803;55.762;38.084;2023-07-31T01:38:47;98748.16;;;13.36;100.00
53011;BME280;42803;55.762;38.084;2023-07-31T01:41:19;98750.84;;;13.37;100.00
53011;BME280;42803;55.762;38.084;2023-07-31T01:43:48;98751.91;;;13.74;100.00
53011;BME280;42803;55.762;38.084;2023-07-31T01:46:17;98758.59;;;13.85;100.00
53011;BME280;42803;55.762;38.084;2023-07-31T01:48:46;98762.75;;;13.98;100.00
53011;BME280;42803;55.762;38.084;2023-07-31T01:51:15;98764.06;;;14.76;100.00
53011;BME280;42803;55.762;38.084;2023-07-31T01:53:45;98757.66;;;15.63;100.00
53011;BME280;42803;55.762;38.084;2023-07-31T01:56:14;98755.94;;;16.44;100.00
53011;BME280;42803;55.762;38.084;2023-07-31T01:58:44;98744.47;;;17.07;99.66
53011;BME280;42803;55.762;38.084;2023-07-31T02:01:13;98752.69;;;17.61;95.27
53011;BME280;42803;55.762;38.084;2023-07-31T02:03:42;98744.97;;;18.15;91.64
53011;BME280;42803;55.762;38.084;2023-07-31T02:06:12;98737.72;;;18.60;89.12
53011;BME280;42803;55.762;38.084;2023-07-31T02:08:41;98750.13;;;19.17;85.91
53011;BME280;42803;55.762;38.084;2023-07-31T02:11:13;98754.13;;;19.61;81.90
53011;BME280;42803;55.762;38.084;2023-07-31T02:13:42;98748.81;;;19.91;81.49
53011;BME280;42803;55.762;38.084;2023-07-31T02:16:12;98749.59;;;20.19;79.03
53011;BME280;42803;55.762;38.084;2023-07-31T02:18:41;98748.56;;;20.49;78.45
53011;BME280;42803;55.762;38.084;2023-07-31T02:21:17;98750.31;;;20.81;76.02
53011;BME280;42803;55.762;38.084;2023-07-31T02:23:46;98750.09;;;21.10;75.00
53011;BME280;42803;55.762;38.084;2023-07-31T02:26:15;98745.97;;;21.62;73.14
53011;BME280;42803;55.762;38.084;2023-07-31T02:28:44;98756.66;;;22.09;71.37
53011;BME280;42803;55.762;38.084;2023-07-31T02:31:15;98752.94;;;22.45;70.13
53011;BME280;42803;55.762;38.084;2023-07-31T02:33:46;98750.28;;;22.45;69.44
53011;BME280;42803;55.762;38.084;2023-07-31T02:36:16;98746.38;;;22.74;69.10
53011;BME280;42803;55.762;38.084;2023-07-31T02:38:45;98746.13;;;23.14;67.89
53011;BME280;42803;55.762;38.084;2023-07-31T02:41:14;98744.69;;;23.37;66.41
53011;BME280;42803;55.762;38.084;2023-07-31T02:43:45;98741.50;;;23.66;65.57
53011;BME280;42803;55.762;38.084;2023-07-31T02:46:15;98748.06;;;23.91;63.40
53011;BME280;42803;55.762;38.084;2023-07-31T02:48:44;98743.91;;;24.16;63.13
53011;BME280;42803;55.762;38.084;2023-07-31T02:51:13;98738.00;;;24.46;62.88
53011;BME280;42803;55.762;38.084;2023-07-31T02:53:42;98744.38;;;24.65;61.25
53011;BME280;42803;55.762;38.084;2023-07-31T02:56:11;98752.41;;;24.65;60.90
53011;BME280;42803;55.762;38.084;2023-07-31T02:58:41;98751.38;;;24.49;60.91
53011;BME280;42803;55.762;38.084;2023-07-31T03:01:10;98753.91;;;24.38;61.86
53011;BME280;42803;55.762;38.084;2023-07-31T03:03:43;98752.97;;;24.33;61.07
53011;BME280;42803;55.762;38.084;2023-07-31T03:06:12;98753.09;;;23.05;64.04
53011;BME280;42803;55.762;38.084;2023-07-31T03:08:42;98752.13;;;21.20;69.78
53011;BME280;42803;55.762;38.084;2023-07-31T03:11:11;98760.66;;;20.37;72.48
53011;BME280;42803;55.762;38.084;2023-07-31T03:13:40;98754.59;;;19.77;76.25
53011;BME280;42803;55.762;38.084;2023-07-31T03:16:09;98761.34;;;19.65;76.68
53011;BME280;42803;55.762;38.084;2023-07-31T03:18:38;98755.81;;;19.59;77.68
53011;BME280;42803;55.762;38.084;2023-07-31T03:21:09;98754.28;;;19.37;78.24
53011;BME280;42803;55.762;38.084;2023-07-31T03:23:38;98748.28;;;19.43;78.36
53011;BME280;42803;55.762;38.084;2023-07-31T03:26:08;98747.69;;;19.53;78.16
53011;BME280;42803;55.762;38.084;2023-07-31T03:28:37;98747.00;;;19.60;78.04
53011;BME280;42803;55.762;38.084;2023-07-31T03:31:06;98743.81;;;19.70;77.21
53011;BME280;42803;55.762;38.084;2023-07-31T03:33:36;98751.97;;;19.77;77.29
53011;BME280;42803;55.762;38.084;2023-07-31T03:36:05;98750.63;;;19.92;76.93
53011;BME280;42803;55.762;38.084;2023-07-31T03:38:36;98754.09;;;19.90;77.15
53011;BME280;42803;55.762;38.084;2023-07-31T03:41:08;98753.09;;;19.86;76.90
53011;BME280;42803;55.762;38.084;2023-07-31T03:43:38;98746.56;;;20.05;77.31
53011;BME280;42803;55.762;38.084;2023-07-31T03:46:08;98752.03;;;20.11;77.12
53011;BME280;42803;55.762;38.084;2023-07-31T03:48:37;98752.03;;;20.11;77.05
53011;BME280;42803;55.762;38.084;2023-07-31T03:51:06;98752.34;;;20.24;76.76
53011;BME280;42803;55.762;38.084;2023-07-31T03:53:38;98750.28;;;20.12;76.69
53011;BME280;42803;55.762;38.084;2023-07-31T03:56:07;98744.59;;;19.98;77.11
53011;BME280;42803;55.762;38.084;2023-07-31T03:58:36;98754.25;;;19.96;77.61
53011;BME280;42803;55.762;38.084;2023-07-31T04:01:05;98751.63;;;19.96;77.70
53011;BME280;42803;55.762;38.084;2023-07-31T04:03:34;98745.53;;;20.00;77.26
53011;BME280;42803;55.762;38.084;2023-07-31T04:06:03;98740.19;;;19.99;77.82
53011;BME280;42803;55.762;38.084;2023-07-31T04:08:34;98749.31;;;20.10;76.80
53011;BME280;42803;55.762;38.084;2023-07-31T04:11:05;98754.94;;;20.22;75.99
53011;BME280;42803;55.762;38.084;2023-07-31T04:13:34;98754.53;;;20.40;76.69
53011;BME280;42803;55.762;38.084;2023-07-31T04:16:04;98751.44;;;20.55;75.95
53011;BME280;42803;55.762;38.084;2023-07-31T04:18:33;98749.66;;;20.55;75.68
53011;BME280;42803;55.762;38.084;2023-07-31T04:21:02;98757.81;;;20.30;76.45
53011;BME280;42803;55.762;38.084;2023-07-31T04:23:31;98760.75;;;20.07;77.32
53011;BME280;42803;55.762;38.084;2023-07-31T04:26:00;98765.63;;;19.92;77.18
53011;BME280;42803;55.762;38.084;2023-07-31T04:28:31;98761.13;;;19.89;78.20
53011;BME280;42803;55.762;38.084;2023-07-31T04:31:00;98759.97;;;19.80;78.11
53011;BME280;42803;55.762;38.084;2023-07-31T04:33:29;98751.97;;;19.78;78.30
53011;BME280;42803;55.762;38.084;2023-07-31T04:35:59;98748.22;;;19.70;78.40
53011;BME280;42803;55.762;38.084;2023-07-31T04:38:28;98753.53;;;19.70;78.57
53011;BME280;42803;55.762;38.084;2023-07-31T04:40:57;98756.47;;;19.81;78.83
53011;BME280;42803;55.762;38.084;2023-07-31T04:43:26;98761.84;;;19.84;78.82
53011;BME280;42803;55.762;38.084;2023-07-31T04:45:57;98761.03;;;19.86;78.74
53011;BME280;42803;55.762;38.084;2023-07-31T04:48:26;98764.66;;;19.88;78.43
53011;BME280;42803;55.762;38.084;2023-07-31T04:50:55;98756.72;;;19.90;77.83
53011;BME280;42803;55.762;38.084;2023-07-31T04:53:24;98752.50;;;19.96;78.73
53011;BME280;42803;55.762;38.084;2023-07-31T04:55:54;98763.25;;;20.03;77.52
53011;BME280;42803;55.762;38.084;2023-07-31T04:58:23;98757.06;;;20.02;77.12
53011;BME280;42803;55.762;38.084;2023-07-31T05:00:52;98763.41;;;20.07;76.72
53011;BME280;42803;55.762;38.084;2023-07-31T05:03:22;98765.22;;;20.10;77.16
53011;BME280;42803;55.762;38.084;2023-07-31T05:05:51;98764.41;;;20.12;76.17
53011;BME280;42803;55.762;38.084;2023-07-31T05:08:21;98764.50;;;20.15;76.03
53011;BME280;42803;55.762;38.084;2023-07-31T05:10:50;98762.78;;;20.17;76.27
53011;BME280;42803;55.762;38.084;2023-07-31T05:13:19;98762.16;;;20.26;76.83
53011;BME280;42803;55.762;38.084;2023-07-31T05:15:48;98770.03;;;20.25;76.10
53011;BME280;42803;55.762;38.084;2023-07-31T05:18:18;98772.25;;;20.41;76.49
53011;BME280;42803;55.762;38.084;2023-07-31T05:20:48;98758.41;;;20.51;74.77
53011;BME280;42803;55.762;38.084;2023-07-31T05:23:17;98775.84;;;20.43;74.64
53011;BME280;42803;55.762;38.084;2023-07-31T05:25:47;98773.28;;;20.46;75.07
53011;BME280;42803;55.762;38.084;2023-07-31T05:28:16;98769.31;;;20.63;75.31
53011;BME280;42803;55.762;38.084;2023-07-31T05:30:45;98773.25;;;20.79;75.88
53011;BME280;42803;55.762;38.084;2023-07-31T05:33:14;98771.53;;;20.80;75.11
53011;BME280;42803;55.762;38.084;2023-07-31T05:35:43;98770.78;;;20.87;74.56
53011;BME280;42803;55.762;38.084;2023-07-31T05:38:14;98773.50;;;20.90;73.14
53011;BME280;42803;55.762;38.084;2023-07-31T05:40:43;98774.59;;;20.98;73.63
53011;BME280;42803;55.762;38.084;2023-07-31T05:43:12;98778.28;;;21.03;73.41
53011;BME280;42803;55.762;38.084;2023-07-31T05:45:42;98782.63;;;21.01;73.19
53011;BME280;42803;55.762;38.084;2023-07-31T05:48:11;98780.94;;;21.05;72.86
53011;BME280;42803;55.762;38.084;2023-07-31T05:50:40;98779.19;;;21.05;71.05
53011;BME280;42803;55.762;38.084;2023-07-31T05:53:10;98772.97;;;21.03;71.52
53011;BME280;42803;55.762;38.084;2023-07-31T05:55:40;98776.81;;;21.17;71.43
53011;BME280;42803;55.762;38.084;2023-07-31T05:58:09;98777.94;;;21.27;71.61
53011;BME280;42803;55.762;38.084;2023-07-31T06:00:38;98780.50;;;21.24;71.62
53011;BME280;42803;55.762;38.084;2023-07-31T06:03:08;98777.91;;;21.26;71.39
53011;BME280;42803;55.762;38.084;2023-07-31T06:05:37;98778.03;;;21.32;70.68
53011;BME280;42803;55.762;38.084;2023-07-31T06:08:07;98773.09;;;21.47;71.06
53011;BME280;42803;55.762;38.084;2023-07-31T06:10:36;98779.59;;;21.60;70.10
53011;BME280;42803;55.762;38.084;2023-07-31T06:13:06;98776.34;;;21.75;69.43
53011;BME280;42803;55.762;38.084;2023-07-31T06:15:35;98785.03;;;21.66;68.34
53011;BME280;42803;55.762;38.084;2023-07-31T06:18:04;98775.22;;;21.63;67.74
53011;BME280;42803;55.762;38.084;2023-07-31T06:20:35;98779.94;;;21.77;68.23
53011;BME280;42803;55.762;38.084;2023-07-31T06:23:04;98787.34;;;21.93;68.20
53011;BME280;42803;55.762;38.084;2023-07-31T06:25:33;98782.97;;;21.95;68.17
53011;BME280;42803;55.762;38.084;2023-07-31T06:28:02;98782.19;;;21.99;67.87
53011;BME280;42803;55.762;38.084;2023-07-31T06:30:33;98781.53;;;22.12;68.30
53011;BME280;42803;55.762;38.084;2023-07-31T06:33:02;98779.41;;;22.38;67.98
53011;BME280;42803;55.762;38.084;2023-07-31T06:35:32;98783.78;;;22.35;67.57
53011;BME280;42803;55.762;38.084;2023-07-31T06:38:01;98777.56;;;22.34;67.05
53011;BME280;42803;55.762;38.084;2023-07-31T06:40:30;98784.44;;;22.23;66.46
53011;BME280;42803;55.762;38.084;2023-07-31T06:42:59;98792.63;;;22.34;67.06
53011;BME280;42803;55.762;38.084;2023-07-31T06:45:35;98780.56;;;22.51;67.32
53011;BME280;42803;55.762;38.084;2023-07-31T06:48:05;98784.19;;;22.56;64.95
53011;BME280;42803;55.762;38.084;2023-07-31T06:50:34;98792.19;;;22.58;64.10
53011;BME280;42803;55.762;38.084;2023-07-31T06:53:04;98789.25;;;22.43;63.10
53011;BME280;42803;55.762;38.084;2023-07-31T06:55:34;98791.19;;;22.51;63.61
53011;BME280;42803;55.762;38.084;2023-07-31T06:58:05;98789.50;;;22.56;63.81
53011;BME280;42803;55.762;38.084;2023-07-31T07:00:36;98783.44;;;22.65;64.29
53011;BME280;42803;55.762;38.084;2023-07-31T07:03:05;98788.19;;;22.84;63.61
53011;BME280;42803;55.762;38.084;2023-07-31T07:05:34;98782.16;;;22.93;61.33
53011;BME280;42803;55.762;38.084;2023-07-31T07:08:04;98786.41;;;22.83;59.76
53011;BME280;42803;55.762;38.084;2023-07-31T07:10:33;98791.09;;;22.97;60.51
53011;BME280;42803;55.762;38.084;2023-07-31T07:13:02;98799.38;;;23.14;59.76
53011;BME280;42803;55.762;38.084;2023-07-31T07:15:31;98791.19;;;23.03;59.02
53011;BME280;42803;55.762;38.084;2023-07-31T07:18:02;98792.13;;;23.05;58.93
53011;BME280;42803;55.762;38.084;2023-07-31T07:20:31;98801.97;;;23.10;59.20
53011;BME280;42803;55.762;38.084;2023-07-31T07:23:00;98793.09;;;23.11;58.37
53011;BME280;42803;55.762;38.084;2023-07-31T07:25:29;98795.06;;;23.22;58.59
53011;BME280;42803;55.762;38.084;2023-07-31T07:27:58;98790.69;;;23.27;58.23
53011;BME280;42803;55.762;38.084;2023-07-31T07:30:28;98784.63;;;23.39;58.22
53011;BME280;42803;55.762;38.084;2023-07-31T07:32:57;98794.22;;;23.26;57.05
53011;BME280;42803;55.762;38.084;2023-07-31T07:35:28;98800.97;;;23.02;57.04
53011;BME280;42803;55.762;38.084;2023-07-31T07:37:58;98792.38;;;23.22;58.01
53011;BME280;42803;55.762;38.084;2023-07-31T07:40:28;98785.78;;;23.57;57.53
53011;BME280;42803;55.762;38.084;2023-07-31T07:42:57;98796.94;;;23.91;56.99
53011;BME280;42803;55.762;38.084;2023-07-31T07:45:28;98804.81;;;23.82;55.28
53011;BME280;42803;55.762;38.084;2023-07-31T07:47:57;98798.50;;;23.74;54.35
53011;BME280;42803;55.762;38.084;2023-07-31T07:50:28;98802.03;;;23.73;54.86
53011;BME280;42803;55.762;38.084;2023-07-31T07:52:57;98795.84;;;23.75;54.29
53011;BME280;42803;55.762;38.084;2023-07-31T07:55:26;98797.38;;;23.61;53.67
53011;BME280;42803;55.762;38.084;2023-07-31T07:57:56;98798.41;;;23.69;54.14
53011;BME280;42803;55.762;38.084;2023-07-31T08:00:25;98802.09;;;23.77;53.21
53011;BME280;42803;55.762;38.084;2023-07-31T08:02:58;98796.13;;;23.98;53.82
53011;BME280;42803;55.762;38.084;2023-07-31T08:05:31;98791.69;;;23.99;53.28
53011;BME280;42803;55.762;38.084;2023-07-31T08:08:02;98803.47;;;24.18;53.05
53011;BME280;42803;55.762;38.084;2023-07-31T08:10:31;98802.50;;;24.11;52.96
53011;BME280;42803;55.762;38.084;2023-07-31T08:13:00;98794.56;;;24.16;53.12
53011;BME280;42803;55.762;38.084;2023-07-31T08:15:29;98792.75;;;24.15;52.14
53011;BME280;42803;55.762;38.084;2023-07-31T08:17:58;98803.66;;;24.33;52.95
53011;BME280;42803;55.762;38.084;2023-07-31T08:20:28;98796.66;;;24.41;52.29
53011;BME280;42803;55.762;38.084;2023-07-31T08:22:58;98807.47;;;24.56;51.61
53011;BME280;42803;55.762;38.084;2023-07-31T08:25:27;98804.25;;;24.88;51.69
53011;BME280;42803;55.762;38.084;2023-07-31T08:27:56;98801.81;;;25.16;50.01
53011;BME280;42803;55.762;38.084;2023-07-31T08:30:25;98799.31;;;25.39;50.06
53011;BME280;42803;55.762;38.084;2023-07-31T08:32:54;98810.91;;;25.42;49.90
53011;BME280;42803;55.762;38.084;2023-07-31T08:35:24;98803.72;;;25.32;50.58
53011;BME280;42803;55.762;38.084;2023-07-31T08:37:53;98808.31;;;25.56;50.50
53011;BME280;42803;55.762;38.084;2023-07-31T08:40:24;98802.91;;;25.48;49.18
53011;BME280;42803;55.762;38.084;2023-07-31T08:42:55;98801.19;;;25.53;49.99
53011;BME280;42803;55.762;38.084;2023-07-31T08:45:30;98811.84;;;25.50;49.39
53011;BME280;42803;55.762;38.084;2023-07-31T08:48:00;98815.25;;;25.28;49.28
53011;BME280;42803;55.762;38.084;2023-07-31T08:50:31;98811.72;;;25.32;49.36
53011;BME280;42803;55.762;38.084;2023-07-31T08:53:01;98816.84;;;25.09;49.12
53011;BME280;42803;55.762;38.084;2023-07-31T08:55:32;98815.13;;;25.13;49.90
53011;BME280;42803;55.762;38.084;2023-07-31T08:58:02;98817.72;;;25.07;48.73
53011;BME280;42803;55.762;38.084;2023-07-31T09:00:32;98822.75;;;24.70;49.24
53011;BME280;42803;55.762;38.084;2023-07-31T09:03:07;98824.38;;;24.55;49.71
53011;BME280;42803;55.762;38.084;2023-07-31T09:05:39;98818.41;;;24.81;49.65
53011;BME280;42803;55.762;38.084;2023-07-31T09:08:11;98811.50;;;25.09;49.20
53011;BME280;42803;55.762;38.084;2023-07-31T09:10:43;98810.00;;;25.40;50.00
53011;BME280;42803;55.762;38.084;2023-07-31T09:13:14;98810.94;;;25.45;49.67
53011;BME280;42803;55.762;38.084;2023-07-31T09:15:46;98809.16;;;25.47;49.03
53011;BME280;42803;55.762;38.084;2023-07-31T09:18:15;98813.44;;;25.22;49.00
53011;BME280;42803;55.762;38.084;2023-07-31T09:21:00;98805.38;;;25.18;49.83
53011;BME280;42803;55.762;38.084;2023-07-31T09:23:40;98807.19;;;25.19;48.65
53011;BME280;42803;55.762;38.084;2023-07-31T09:26:28;98814.44;;;25.38;48.68
53011;BME280;42803;55.762;38.084;2023-07-31T09:28:58;98821.25;;;24.99;48.28
53011;BME280;42803;55.762;38.084;2023-07-31T09:31:38;98817.56;;;24.85;48.94
53011;BME280;42803;55.762;38.084;2023-07-31T09:34:09;98822.03;;;24.89;49.25
53011;BME280;42803;55.762;38.084;2023-07-31T09:36:42;98812.59;;;25.28;49.11
53011;BME280;42803;55.762;38.084;2023-07-31T09:39:12;98812.66;;;25.39;49.37
53011;BME280;42803;55.762;38.084;2023-07-31T09:41:46;98815.59;;;25.79;48.63
53011;BME280;42803;55.762;38.084;2023-07-31T09:44:16;98825.41;;;25.78;48.35
53011;BME280;42803;55.762;38.084;2023-07-31T09:46:45;98813.78;;;25.76;48.34
53011;BME280;42803;55.762;38.084;2023-07-31T09:49:14;98810.19;;;25.72;48.47
53011;BME280;42803;55.762;38.084;2023-07-31T09:51:44;98819.03;;;25.62;48.85
53011;BME280;42803;55.762;38.084;2023-07-31T09:54:16;98816.28;;;25.48;47.43
53011;BME280;42803;55.762;38.084;2023-07-31T09:56:47;98822.66;;;25.70;47.50
53011;BME280;42803;55.762;38.084;2023-07-31T09:59:19;98817.47;;;25.98;46.79
53011;BME280;42803;55.762;38.084;2023-07-31T10:01:52;98821.03;;;25.95;48.01
53011;BME280;42803;55.762;38.084;2023-07-31T10:04:28;98822.03;;;26.25;46.35
53011;BME280;42803;55.762;38.084;2023-07-31T10:07:01;98811.44;;;26.59;47.33
53011;BME280;42803;55.762;38.084;2023-07-31T10:09:31;98815.78;;;26.20;46.12
53011;BME280;42803;55.762;38.084;2023-07-31T10:12:06;98819.34;;;26.20;46.83
53011;BME280;42803;55.762;38.084;2023-07-31T10:14:38;98823.78;;;26.11;46.80
53011;BME280;42803;55.762;38.084;2023-07-31T10:17:08;98818.13;;;25.59;48.33
53011;BME280;42803;55.762;38.084;2023-07-31T10:19:39;98821.53;;;25.30;47.68
53011;BME280;42803;55.762;38.084;2023-07-31T10:22:08;98818.81;;;25.27;47.42
53011;BME280;42803;55.762;38.084;2023-07-31T10:24:42;98819.75;;;25.35;48.49
53011;BME280;42803;55.762;38.084;2023-07-31T10:27:13;98826.22;;;25.71;47.54
53011;BME280;42803;55.762;38.084;2023-07-31T10:29:43;98820.16;;;25.99;46.48
53011;BME280;42803;55.762;38.084;2023-07-31T10:32:15;98807.78;;;26.28;46.77
53011;BME280;42803;55.762;38.084;2023-07-31T10:34:46;98806.00;;;26.22;45.99
53011;BME280;42803;55.762;38.084;2023-07-31T10:37:23;98811.25;;;25.99;45.51
53011;BME280;42803;55.762;38.084;2023-07-31T10:39:57;98812.16;;;26.06;46.35
53011;BME280;42803;55.762;38.084;2023-07-31T10:42:30;98800.69;;;26.39;46.59
53011;BME280;42803;55.762;38.084;2023-07-31T10:45:02;98802.53;;;26.66;46.70
53011;BME280;42803;55.762;38.084;2023-07-31T10:47:37;98806.91;;;26.39;45.13
53011;BME280;42803;55.762;38.084;2023-07-31T10:50:14;98815.63;;;25.86;46.96
53011;BME280;42803;55.762;38.084;2023-07-31T10:52:49;98804.75;;;25.54;47.40
53011;BME280;42803;55.762;38.084;2023-07-31T10:55:30;98810.09;;;25.60;47.17
53011;BME280;42803;55.762;38.084;2023-07-31T10:58:07;98811.19;;;25.88;46.77
53011;BME280;42803;55.762;38.084;2023-07-31T11:00:38;98806.75;;;25.92;45.93
53011;BME280;42803;55.762;38.084;2023-07-31T11:03:09;98811.25;;;25.99;47.03
53011;BME280;42803;55.762;38.084;2023-07-31T11:05:44;98805.00;;;25.97;46.79
53011;BME280;42803;55.762;38.084;2023-07-31T11:08:16;98809.53;;;26.18;46.58
53011;BME280;42803;55.762;38.084;2023-07-31T11:10:47;98798.81;;;26.12;46.35
53011;BME280;42803;55.762;38.084;2023-07-31T11:13:18;98789.91;;;26.19;46.18
53011;BME280;42803;55.762;38.084;2023-07-31T11:15:47;98789.03;;;26.18;46.58
53011;BME280;42803;55.762;38.084;2023-07-31T11:18:16;98789.16;;;26.58;45.55
53011;BME280;42803;55.762;38.084;2023-07-31T11:20:46;98791.84;;;26.69;44.82
53011;BME280;42803;55.762;38.084;2023-07-31T11:23:16;98786.47;;;26.54;45.54
53011;BME280;42803;55.762;38.084;2023-07-31T11:25:46;98786.47;;;26.63;45.28
53011;BME280;42803;55.762;38.084;2023-07-31T11:28:17;98789.16;;;26.52;44.19
53011;BME280;42803;55.762;38.084;2023-07-31T11:30:47;98791.72;;;26.23;45.24
53011;BME280;42803;55.762;38.084;2023-07-31T11:33:16;98788.16;;;26.18;45.75
53011;BME280;42803;55.762;38.084;2023-07-31T11:35:46;98793.25;;;25.70;46.17
53011;BME280;42803;55.762;38.084;2023-07-31T11:38:21;98795.81;;;25.50;46.79
53011;BME280;42803;55.762;38.084;2023-07-31T11:40:52;98791.38;;;25.54;47.31
53011;BME280;42803;55.762;38.084;2023-07-31T11:43:24;98795.91;;;25.64;47.27
53011;BME280;42803;55.762;38.084;2023-07-31T11:45:55;98788.81;;;25.75;47.19
53011;BME280;42803;55.762;38.084;2023-07-31T11:48:27;98792.53;;;26.00;47.20
53011;BME280;42803;55.762;38.084;2023-07-31T11:50:58;98796.09;;;26.01;47.18
53011;BME280;42803;55.762;38.084;2023-07-31T11:53:31;98791.44;;;25.66;47.75
53011;BME280;42803;55.762;38.084;2023-07-31T11:56:03;98797.69;;;25.65;48.57
53011;BME280;42803;55.762;38.084;2023-07-31T11:58:35;98807.53;;;25.74;49.26
53011;BME280;42803;55.762;38.084;2023-07-31T12:01:05;98807.56;;;25.79;49.15
53011;BME280;42803;55.762;38.084;2023-07-31T12:03:36;98802.16;;;25.65;49.57
53011;BME280;42803;55.762;38.084;2023-07-31T12:06:05;98806.47;;;25.46;49.74
53011;BME280;42803;55.762;38.084;2023-07-31T12:08:36;98802.91;;;25.45;49.83
53011;BME280;42803;55.762;38.084;2023-07-31T12:11:07;98806.59;;;25.70;49.12
53011;BME280;42803;55.762;38.084;2023-07-31T12:13:39;98797.03;;;26.08;49.45
53011;BME280;42803;55.762;38.084;2023-07-31T12:16:08;98795.34;;;26.37;48.15
53011;BME280;42803;55.762;38.084;2023-07-31T12:18:38;98802.53;;;26.66;48.38
53011;BME280;42803;55.762;38.084;2023-07-31T12:21:08;98800.81;;;27.20;47.45
53011;BME280;42803;55.762;38.084;2023-07-31T12:23:39;98800.75;;;27.60;46.38
53011;BME280;42803;55.762;38.084;2023-07-31T12:26:15;98801.63;;;27.71;46.40
53011;BME280;42803;55.762;38.084;2023-07-31T12:28:47;98804.31;;;27.82;46.22
53011;BME280;42803;55.762;38.084;2023-07-31T12:31:17;98803.47;;;27.37;46.56
53011;BME280;42803;55.762;38.084;2023-07-31T12:33:48;98803.47;;;26.91;45.94
53011;BME280;42803;55.762;38.084;2023-07-31T12:36:20;98804.34;;;26.88;47.55
53011;BME280;42803;55.762;38.084;2023-07-31T12:38:50;98801.72;;;27.14;47.39
53011;BME280;42803;55.762;38.084;2023-07-31T12:41:20;98802.56;;;27.45;46.25
53011;BME280;42803;55.762;38.084;2023-07-31T12:43:51;98813.22;;;27.70;45.69
53011;BME280;42803;55.762;38.084;2023-07-31T12:46:20;98806.94;;;27.97;45.96
53011;BME280;42803;55.762;38.084;2023-07-31T12:48:49;98812.31;;;27.85;45.19
53011;BME280;42803;55.762;38.084;2023-07-31T12:51:18;98806.09;;;27.75;45.84
53011;BME280;42803;55.762;38.084;2023-07-31T12:53:48;98813.19;;;27.91;45.80
53011;BME280;42803;55.762;38.084;2023-07-31T12:56:17;98810.47;;;27.99;45.15
53011;BME280;42803;55.762;38.084;2023-07-31T12:58:46;98815.00;;;27.89;46.13
53011;BME280;42803;55.762;38.084;2023-07-31T13:01:17;98811.47;;;27.61;46.67
53011;BME280;42803;55.762;38.084;2023-07-31T13:03:46;98814.19;;;27.02;46.81